Time;durP1;ratioP1;P1;durP2;ratioP2;P2;SDS_P1;SDS_P2;PMS_P1;PMS_P2;Temp;Humidity;BMP_temperature;BMP_pressure;BME280_temperature;BME280_humidity;BME280_pressure;Samples;Min_cycle;Max_cycle;Signal;HPM_P1;HPM_P2
2023/05/22 00:00:43;;;;;;;6.88;5.50;;;15.00;99.90;;;;;;5036910;28;20028;-70
2023/05/22 00:03:09;;;;;;;7.93;6.47;;;15.00;99.90;;;;;;5037421;28;20025;-70
2023/05/22 00:05:39;;;;;;;7.22;5.72;;;15.00;99.90;;;;;;5038534;28;20029;-70
2023/05/22 00:08:11;;;;;;;7.47;5.70;;;14.90;99.90;;;;;;5038037;28;20070;-69
2023/05/22 00:10:37;;;;;;;9.23;5.95;;;14.90;99.90;;;;;;5026998;28;20557;-69
2023/05/22 00:13:03;;;;;;;9.10;6.05;;;14.90;99.90;;;;;;5038525;28;20490;-69
2023/05/22 00:15:29;;;;;;;6.78;5.95;;;14.90;99.90;;;;;;5038246;28;20051;-70
2023/05/22 00:17:55;;;;;;;6.95;5.80;;;14.80;99.90;;;;;;5038319;28;20107;-70
2023/05/22 00:20:22;;;;;;;8.10;5.68;;;14.80;99.90;;;;;;5038147;28;20033;-70
2023/05/22 00:22:48;;;;;;;6.88;5.80;;;14.80;99.90;;;;;;5038215;28;20021;-69
2023/05/22 00:25:17;;;;;;;8.07;5.85;;;14.80;99.90;;;;;;5038261;28;20087;-70
2023/05/22 00:27:43;;;;;;;8.52;6.00;;;14.90;99.90;;;;;;5038166;28;20080;-70
2023/05/22 00:30:09;;;;;;;6.20;5.60;;;14.90;99.90;;;;;;5037944;28;20029;-70
2023/05/22 00:32:35;;;;;;;6.80;6.10;;;14.90;99.90;;;;;;5036961;28;20100;-70
2023/05/22 00:35:00;;;;;;;7.05;6.35;;;14.90;99.90;;;;;;5037926;28;20049;-70
2023/05/22 00:37:26;;;;;;;9.18;6.40;;;14.80;99.90;;;;;;5036658;28;20029;-70
2023/05/22 00:39:52;;;;;;;7.32;6.45;;;14.90;99.90;;;;;;5037863;28;20021;-70
2023/05/22 00:42:17;;;;;;;6.20;5.60;;;14.80;99.90;;;;;;5037981;28;20053;-70
2023/05/22 00:44:43;;;;;;;7.38;5.90;;;14.80;99.90;;;;;;5034284;28;20057;-70
2023/05/22 00:47:09;;;;;;;6.18;5.57;;;14.70;99.90;;;;;;5037816;28;20432;-70
2023/05/22 00:49:35;;;;;;;7.68;6.32;;;14.70;99.90;;;;;;5037782;28;20029;-70
2023/05/22 00:52:01;;;;;;;6.40;5.80;;;14.70;99.90;;;;;;5037439;28;20025;-70
2023/05/22 00:54:29;;;;;;;8.07;6.68;;;14.70;99.90;;;;;;5035810;28;20041;-70
2023/05/22 00:56:55;;;;;;;6.93;5.72;;;14.70;99.90;;;;;;5036409;28;20032;-69
2023/05/22 00:59:21;;;;;;;7.50;6.53;;;14.70;99.90;;;;;;5037312;28;20025;-69
2023/05/22 01:01:47;;;;;;;6.70;6.00;;;14.70;99.90;;;;;;5037516;28;20421;-70
2023/05/22 01:04:14;;;;;;;11.00;6.05;;;14.70;99.90;;;;;;5037327;28;20036;-70
2023/05/22 01:06:40;;;;;;;6.80;6.05;;;14.70;99.90;;;;;;5037366;28;20019;-70
2023/05/22 01:09:06;;;;;;;6.25;5.65;;;14.60;99.90;;;;;;5032689;28;20033;-70
2023/05/22 01:11:57;;;;;;;8.90;7.00;;;14.60;99.90;;;;;;5032951;28;20025;-70
2023/05/22 01:14:29;;;;;;;7.22;6.43;;;14.60;99.90;;;;;;5037430;28;20029;-70
2023/05/22 01:17:09;;;;;;;7.13;6.25;;;14.60;99.90;;;;;;5037460;28;20044;-70
2023/05/22 01:19:59;;;;;;;7.20;6.32;;;14.60;99.90;;;;;;5036997;28;20081;-70
2023/05/22 01:23:07;;;;;;;6.65;6.05;;;14.60;99.90;;;;;;5037394;28;20076;-70
2023/05/22 01:26:01;;;;;;;7.85;5.65;;;14.60;99.90;;;;;;5028177;28;20398;-70
2023/05/22 01:28:51;;;;;;;7.20;6.03;;;14.60;99.90;;;;;;5035409;28;20025;-70
2023/05/22 01:31:21;;;;;;;7.10;6.40;;;14.60;99.90;;;;;;5035609;28;20489;-70
2023/05/22 01:33:59;;;;;;;6.40;5.80;;;14.60;99.90;;;;;;5037189;28;20481;-70
2023/05/22 01:36:29;;;;;;;7.97;7.05;;;14.60;99.90;;;;;;5036984;28;20106;-70
2023/05/22 01:38:55;;;;;;;;;;;14.60;99.90;;;;;;5037607;28;20025;-70
2023/05/22 01:41:22;;;;;;;6.68;5.90;;;14.50;99.90;;;;;;5035712;28;19920;-70
2023/05/22 01:43:47;;;;;;;7.63;6.68;;;14.50;99.90;;;;;;5034894;28;20413;-70
2023/05/22 01:46:13;;;;;;;7.55;6.10;;;14.50;99.90;;;;;;5034610;28;20052;-70
2023/05/22 01:48:38;;;;;;;7.30;6.32;;;14.50;99.90;;;;;;5036961;28;20030;-70
2023/05/22 01:51:12;;;;;;;6.95;6.20;;;14.50;99.90;;;;;;5036714;28;20049;-70
2023/05/22 01:53:50;;;;;;;7.05;6.07;;;14.50;99.90;;;;;;5036911;28;20033;-70
2023/05/22 01:56:29;;;;;;;6.85;6.03;;;14.50;99.90;;;;;;5037029;28;20432;-70
2023/05/22 01:59:29;;;;;;;8.38;6.40;;;14.50;99.90;;;;;;5035313;28;20025;-70
2023/05/22 02:01:59;;;;;;;8.10;6.68;;;14.50;99.90;;;;;;5036806;28;20031;-70
2023/05/22 02:04:28;;;;;;;7.63;6.43;;;14.50;99.90;;;;;;5035396;28;20029;-70
2023/05/22 02:06:56;;;;;;;6.72;6.03;;;14.40;99.90;;;;;;5036562;28;20087;-70
2023/05/22 02:09:25;;;;;;;7.78;6.90;;;14.40;99.90;;;;;;5029850;28;20049;-70
2023/05/22 02:11:51;;;;;;;6.80;6.13;;;14.30;99.90;;;;;;5034051;28;20018;-70
2023/05/22 02:14:17;;;;;;;7.00;6.30;;;14.30;99.90;;;;;;5036767;28;20065;-70
2023/05/22 02:16:46;;;;;;;7.53;6.43;;;14.30;99.90;;;;;;5036561;28;20020;-70
2023/05/22 02:19:12;;;;;;;9.55;6.78;;;14.30;99.90;;;;;;5036512;28;20054;-70
2023/05/22 02:21:38;;;;;;;7.18;5.82;;;14.30;99.90;;;;;;5036481;28;20014;-70
2023/05/22 02:24:04;;;;;;;6.82;6.13;;;14.30;99.90;;;;;;5036773;28;20036;-70
2023/05/22 02:26:30;;;;;;;11.20;8.35;;;14.30;99.90;;;;;;5036353;28;20013;-70
2023/05/22 02:28:55;;;;;;;9.07;7.18;;;14.30;99.90;;;;;;5036844;28;20116;-70
2023/05/22 02:31:21;;;;;;;10.27;6.93;;;14.40;99.90;;;;;;5037264;28;20021;-70
2023/05/22 02:33:47;;;;;;;7.00;6.35;;;14.40;99.90;;;;;;5040445;28;20036;-70
2023/05/22 02:36:13;;;;;;;7.13;5.95;;;14.40;99.90;;;;;;5040195;28;20032;-70
2023/05/22 02:38:39;;;;;;;7.82;6.53;;;14.40;99.90;;;;;;5037270;28;20072;-70
2023/05/22 02:41:06;;;;;;;9.43;7.32;;;14.40;99.90;;;;;;5040047;28;20105;-70
2023/05/22 02:43:31;;;;;;;7.93;7.00;;;14.50;99.90;;;;;;5040371;28;20025;-70
2023/05/22 02:45:57;;;;;;;6.90;6.20;;;14.50;99.90;;;;;;5039626;28;20024;-70
2023/05/22 02:48:23;;;;;;;9.77;6.50;;;14.50;99.90;;;;;;5040283;28;20025;-71
2023/05/22 02:50:48;;;;;;;10.45;6.93;;;14.50;99.90;;;;;;5039912;28;20936;-70
2023/05/22 02:53:15;;;;;;;8.57;6.35;;;14.50;99.90;;;;;;5040346;28;20030;-70
2023/05/22 02:55:41;;;;;;;8.05;6.10;;;14.40;99.90;;;;;;5039866;28;20020;-70
2023/05/22 02:58:11;;;;;;;7.82;6.95;;;14.40;99.90;;;;;;5039072;28;20034;-70
2023/05/22 03:00:37;;;;;;;7.80;7.00;;;14.40;99.90;;;;;;5039139;28;20017;-70
2023/05/22 03:03:04;;;;;;;10.40;8.15;;;14.40;99.90;;;;;;5039040;28;20379;-70
2023/05/22 03:05:30;;;;;;;9.45;7.07;;;14.30;99.90;;;;;;5039019;28;20017;-70
2023/05/22 03:07:56;;;;;;;8.13;6.25;;;14.30;99.90;;;;;;5037032;28;20052;-70
2023/05/22 03:10:23;;;;;;;8.32;6.07;;;14.30;99.90;;;;;;5027926;28;20501;-70
2023/05/22 03:12:50;;;;;;;7.65;6.90;;;14.40;99.90;;;;;;5038337;28;20401;-70
2023/05/22 03:15:19;;;;;;;8.27;7.10;;;14.40;99.90;;;;;;5038182;28;20038;-70
2023/05/22 03:17:45;;;;;;;11.98;6.88;;;14.40;99.90;;;;;;5039649;28;20046;-70
2023/05/22 03:20:15;;;;;;;8.20;7.05;;;14.40;99.90;;;;;;5039223;28;20078;-70
2023/05/22 03:22:42;;;;;;;8.95;7.15;;;14.40;99.90;;;;;;5038244;28;20036;-70
2023/05/22 03:25:08;;;;;;;10.57;7.32;;;14.40;99.90;;;;;;5039437;28;20017;-70
2023/05/22 03:27:34;;;;;;;7.20;6.50;;;14.40;99.90;;;;;;5039449;28;20032;-70
2023/05/22 03:30:00;;;;;;;9.73;7.72;;;14.30;99.90;;;;;;5038913;28;20541;-70
2023/05/22 03:32:26;;;;;;;7.28;6.45;;;14.30;99.90;;;;;;5039443;28;20064;-70
2023/05/22 03:34:52;;;;;;;9.00;8.02;;;14.30;99.90;;;;;;5038995;28;20017;-70
2023/05/22 03:37:17;;;;;;;9.18;7.47;;;14.40;99.90;;;;;;5039370;28;20072;-71
2023/05/22 03:39:43;;;;;;;9.30;7.63;;;14.30;99.90;;;;;;5037744;28;20490;-70
2023/05/22 03:42:09;;;;;;;7.82;7.03;;;14.30;99.90;;;;;;5038014;28;20025;-71
2023/05/22 03:44:35;;;;;;;7.57;6.78;;;14.30;99.90;;;;;;5037577;28;20021;-71
2023/05/22 03:47:00;;;;;;;9.18;6.95;;;14.30;99.90;;;;;;5037599;28;20419;-70
2023/05/22 03:49:26;;;;;;;8.57;7.72;;;14.30;99.90;;;;;;5037098;28;20029;-71
2023/05/22 03:51:51;;;;;;;9.57;7.50;;;14.30;99.90;;;;;;5037742;28;20029;-71
2023/05/22 03:54:17;;;;;;;8.98;7.90;;;14.30;99.90;;;;;;5038812;28;20030;-71
2023/05/22 03:56:43;;;;;;;9.38;7.63;;;14.30;99.90;;;;;;5038925;28;20418;-70
2023/05/22 03:59:09;;;;;;;10.05;7.70;;;14.30;99.90;;;;;;5038311;28;20017;-71
2023/05/22 04:01:37;;;;;;;11.60;8.38;;;14.30;99.90;;;;;;5038845;28;20029;-71
2023/05/22 04:04:04;;;;;;;9.45;7.75;;;14.40;99.90;;;;;;5035631;28;20018;-71
2023/05/22 04:06:31;;;;;;;9.82;8.30;;;14.30;99.90;;;;;;5037321;28;20022;-70
2023/05/22 04:08:57;;;;;;;9.43;8.02;;;14.30;99.90;;;;;;5036199;28;20022;-70
2023/05/22 04:11:23;;;;;;;10.35;7.82;;;14.30;99.90;;;;;;5032678;28;20029;-70
2023/05/22 04:13:52;;;;;;;9.43;8.02;;;14.40;99.90;;;;;;5037152;28;20036;-70
2023/05/22 04:16:18;;;;;;;9.27;8.23;;;14.40;99.90;;;;;;5038323;28;20081;-71
2023/05/22 04:18:43;;;;;;;8.75;7.53;;;14.40;99.90;;;;;;5038083;28;20517;-70
2023/05/22 04:21:09;;;;;;;9.63;8.63;;;14.40;99.90;;;;;;5036710;28;20029;-71
2023/05/22 04:23:35;;;;;;;9.38;8.38;;;14.40;99.90;;;;;;5038315;28;20036;-70
2023/05/22 04:26:01;;;;;;;8.82;7.63;;;14.40;99.90;;;;;;5037301;28;20031;-70
2023/05/22 04:28:29;;;;;;;9.38;8.45;;;14.40;99.90;;;;;;5038133;28;20018;-71
2023/05/22 04:30:56;;;;;;;9.65;7.75;;;14.40;99.90;;;;;;5037375;28;20547;-70
2023/05/22 04:33:23;;;;;;;10.52;8.27;;;14.40;99.90;;;;;;5036720;28;20124;-70
2023/05/22 04:35:50;;;;;;;10.10;8.10;;;14.40;99.90;;;;;;5038235;28;20018;-71
2023/05/22 04:38:17;;;;;;;9.80;8.35;;;14.40;99.90;;;;;;5036700;28;20075;-70
2023/05/22 04:40:43;;;;;;;9.80;8.32;;;14.40;99.90;;;;;;5037843;28;20017;-71
2023/05/22 04:43:11;;;;;;;8.77;7.68;;;14.40;99.90;;;;;;5037642;28;20045;-70
2023/05/22 04:45:38;;;;;;;8.75;7.85;;;14.40;99.90;;;;;;5036246;28;20390;-70
2023/05/22 04:48:04;;;;;;;8.77;7.88;;;14.40;99.90;;;;;;5037667;28;20398;-71
2023/05/22 04:50:31;;;;;;;9.02;7.90;;;14.30;99.90;;;;;;5036455;28;20070;-71
2023/05/22 04:52:58;;;;;;;13.13;8.30;;;14.30;99.90;;;;;;5037389;28;20026;-70
2023/05/22 04:55:24;;;;;;;10.00;8.13;;;14.30;99.90;;;;;;5037610;28;20032;-70
2023/05/22 04:57:51;;;;;;;9.13;7.97;;;14.30;99.90;;;;;;5037680;28;20033;-70
2023/05/22 05:00:17;;;;;;;10.10;8.15;;;14.40;99.90;;;;;;5037196;28;20033;-70
2023/05/22 05:02:43;;;;;;;11.90;8.77;;;14.40;99.90;;;;;;5035486;28;20017;-71
2023/05/22 05:05:09;;;;;;;10.27;8.77;;;14.40;99.90;;;;;;5036150;28;20022;-71
2023/05/22 05:07:38;;;;;;;10.13;8.52;;;14.40;99.90;;;;;;5036199;28;20049;-70
2023/05/22 05:10:05;;;;;;;9.35;8.30;;;14.40;99.90;;;;;;5035011;28;20064;-70
2023/05/22 05:12:31;;;;;;;10.55;7.78;;;14.50;99.90;;;;;;5037351;28;20017;-70
2023/05/22 05:14:57;;;;;;;9.30;8.38;;;14.40;99.90;;;;;;5036041;28;20037;-70
2023/05/22 05:17:22;;;;;;;9.18;8.27;;;14.50;99.90;;;;;;5035760;28;20037;-71
2023/05/22 05:19:48;;;;;;;9.30;8.32;;;14.50;99.90;;;;;;5037082;28;20030;-71
2023/05/22 05:22:14;;;;;;;10.98;8.55;;;14.50;99.90;;;;;;5036797;28;20025;-71
2023/05/22 05:24:39;;;;;;;11.70;8.82;;;14.50;99.90;;;;;;5035970;28;20076;-71
2023/05/22 05:27:05;;;;;;;11.73;8.75;;;14.50;99.90;;;;;;5036002;28;20037;-71
2023/05/22 05:29:31;;;;;;;12.05;9.05;;;14.50;99.90;;;;;;5036830;28;20025;-71
2023/05/22 05:31:56;;;;;;;11.18;8.65;;;14.50;99.90;;;;;;5037440;28;20025;-70
2023/05/22 05:34:22;;;;;;;10.68;9.25;;;14.50;99.90;;;;;;5036720;28;20058;-71
2023/05/22 05:36:48;;;;;;;11.02;9.70;;;14.50;99.90;;;;;;5035812;28;20068;-71
2023/05/22 05:39:13;;;;;;;10.15;8.98;;;14.50;99.90;;;;;;5037003;28;20029;-71
2023/05/22 05:41:39;;;;;;;11.05;8.93;;;14.50;99.90;;;;;;5037025;28;20025;-71
2023/05/22 05:44:04;;;;;;;11.18;9.98;;;14.60;99.90;;;;;;5035383;28;20025;-71
2023/05/22 05:46:30;;;;;;;13.85;9.85;;;14.60;99.90;;;;;;5036864;28;20030;-71
2023/05/22 05:48:57;;;;;;;10.13;9.13;;;14.50;99.90;;;;;;5035576;28;20033;-71
2023/05/22 05:51:22;;;;;;;12.90;10.15;;;14.60;99.90;;;;;;5036924;28;20403;-71
2023/05/22 05:53:48;;;;;;;12.82;10.27;;;14.60;99.90;;;;;;5036965;28;20018;-71
2023/05/22 05:56:14;;;;;;;15.45;10.25;;;14.60;99.90;;;;;;5037191;28;20492;-71
2023/05/22 05:58:40;;;;;;;10.27;9.18;;;14.60;99.90;;;;;;5036913;28;20025;-71
2023/05/22 06:01:06;;;;;;;10.43;9.32;;;14.70;99.90;;;;;;5036524;28;20057;-71
2023/05/22 06:03:31;;;;;;;10.43;9.43;;;14.70;99.90;;;;;;5036677;28;20159;-71
2023/05/22 06:05:58;;;;;;;11.45;9.77;;;14.80;99.90;;;;;;5031614;28;20018;-71
2023/05/22 06:08:23;;;;;;;10.65;9.20;;;14.80;99.90;;;;;;5027114;28;20025;-70
2023/05/22 06:10:49;;;;;;;12.98;9.98;;;14.90;99.90;;;;;;5037385;28;20026;-71
2023/05/22 06:13:15;;;;;;;13.18;9.35;;;14.90;99.90;;;;;;5037832;28;20513;-71
2023/05/22 06:15:41;;;;;;;10.57;9.25;;;14.90;99.90;;;;;;5038706;28;20052;-70
2023/05/22 06:18:06;;;;;;;11.57;10.27;;;15.00;99.90;;;;;;5039841;28;20085;-70
2023/05/22 06:20:32;;;;;;;13.73;9.75;;;15.10;99.90;;;;;;5040366;28;20025;-71
2023/05/22 06:22:58;;;;;;;12.52;9.48;;;15.10;99.90;;;;;;5039314;28;20100;-71
2023/05/22 06:25:28;;;;;;;11.57;9.80;;;15.20;99.90;;;;;;5040426;28;20021;-71
2023/05/22 06:27:54;;;;;;;;;;;15.30;99.90;;;;;;5033746;28;20026;-71
2023/05/22 06:30:20;;;;;;;13.02;9.95;;;15.40;99.90;;;;;;5038818;28;19916;-70
2023/05/22 06:32:45;;;;;;;10.48;9.30;;;15.60;99.90;;;;;;5040168;28;20033;-71
2023/05/22 06:35:11;;;;;;;11.93;9.25;;;15.60;99.90;;;;;;5038793;28;20029;-71
2023/05/22 06:37:37;;;;;;;12.45;9.80;;;15.60;99.90;;;;;;5033816;28;20032;-71
2023/05/22 06:40:04;;;;;;;11.68;9.02;;;15.70;99.90;;;;;;5031780;28;20064;-71
2023/05/22 06:42:31;;;;;;;9.38;8.10;;;15.90;99.90;;;;;;5025305;28;20390;-71
2023/05/22 06:44:57;;;;;;;9.68;8.52;;;16.10;99.90;;;;;;5032150;28;20045;-71
2023/05/22 06:47:23;;;;;;;10.25;7.53;;;16.20;99.90;;;;;;5023679;28;20060;-70
2023/05/22 06:49:48;;;;;;;12.55;9.55;;;16.20;99.90;;;;;;5036058;28;20486;-70
2023/05/22 06:52:14;;;;;;;11.02;8.40;;;16.30;99.90;;;;;;5038339;28;20397;-70
2023/05/22 06:54:41;;;;;;;11.32;8.30;;;16.30;99.90;;;;;;5037946;28;20022;-70
2023/05/22 06:57:07;;;;;;;9.63;7.97;;;16.40;99.90;;;;;;5036043;28;20057;-70
2023/05/22 06:59:33;;;;;;;11.70;7.53;;;16.40;99.90;;;;;;5036251;28;20021;-70
2023/05/22 07:01:59;;;;;;;9.50;6.93;;;16.50;99.90;;;;;;5037825;28;20033;-73
2023/05/22 07:04:24;;;;;;;9.70;6.70;;;16.60;99.90;;;;;;5036374;28;20021;-70
2023/05/22 07:06:50;;;;;;;9.18;6.93;;;16.60;99.90;;;;;;5035405;28;20021;-70
2023/05/22 07:09:18;;;;;;;8.07;6.72;;;16.70;99.90;;;;;;5037516;28;20115;-70
2023/05/22 07:11:47;;;;;;;9.75;6.68;;;16.70;99.90;;;;;;5033631;28;20117;-70
2023/05/22 07:14:13;;;;;;;10.07;7.60;;;16.60;99.90;;;;;;5032417;28;20021;-70
2023/05/22 07:16:40;;;;;;;9.98;7.75;;;16.60;99.90;;;;;;5036014;28;20560;-70
2023/05/22 07:19:07;;;;;;;8.63;7.72;;;16.60;99.90;;;;;;5037136;28;20049;-70
2023/05/22 07:21:36;;;;;;;11.43;7.43;;;16.60;99.90;;;;;;5036008;28;20029;-69
2023/05/22 07:24:06;;;;;;;8.88;7.65;;;16.60;99.90;;;;;;5031412;28;20021;-70
2023/05/22 07:26:36;;;;;;;;;;;16.60;99.90;;;;;;5034962;28;20105;-69
2023/05/22 07:29:02;;;;;;;9.05;7.65;;;16.70;99.90;;;;;;5037496;28;19912;-70
2023/05/22 07:31:28;;;;;;;9.43;7.57;;;16.60;99.90;;;;;;5036241;28;20075;-69
2023/05/22 07:33:54;;;;;;;9.98;8.38;;;16.60;99.90;;;;;;5031791;28;20021;-69
2023/05/22 07:36:21;;;;;;;11.05;6.75;;;16.70;99.90;;;;;;5036272;28;20494;-71
2023/05/22 07:38:46;;;;;;;10.80;6.95;;;16.80;99.90;;;;;;5037158;28;20029;-69
2023/05/22 07:41:12;;;;;;;9.57;8.02;;;16.80;99.90;;;;;;5037223;28;20449;-70
2023/05/22 07:43:38;;;;;;;8.60;7.38;;;17.00;99.90;;;;;;5037035;28;20108;-70
2023/05/22 07:46:05;;;;;;;8.18;7.00;;;17.10;99.90;;;;;;5035365;28;20057;-69
2023/05/22 07:48:30;;;;;;;10.43;6.97;;;17.20;99.90;;;;;;5036088;28;20052;-70
2023/05/22 07:50:56;;;;;;;10.82;7.20;;;17.30;99.90;;;;;;5034290;28;20529;-70
2023/05/22 07:53:22;;;;;;;10.90;7.32;;;17.30;99.90;;;;;;5035244;28;20658;-69
2023/05/22 07:55:48;;;;;;;8.50;7.63;;;17.10;99.90;;;;;;5033574;28;20021;-69
2023/05/22 07:58:14;;;;;;;9.95;7.82;;;17.00;99.90;;;;;;5035867;28;20548;-69
2023/05/22 08:00:40;;;;;;;12.60;8.00;;;16.80;99.90;;;;;;5034472;28;20033;-69
2023/05/22 08:03:06;;;;;;;11.75;7.90;;;16.60;99.90;;;;;;5034021;28;20518;-70
2023/05/22 08:05:31;;;;;;;10.23;7.55;;;16.60;99.90;;;;;;5034321;28;20064;-70
2023/05/22 08:07:57;;;;;;;13.25;8.40;;;16.60;99.90;;;;;;5036346;28;20148;-71
2023/05/22 08:10:23;;;;;;;8.30;7.40;;;16.40;99.90;;;;;;5036748;28;20109;-71
2023/05/22 08:12:48;;;;;;;11.38;8.35;;;16.40;99.90;;;;;;5035064;28;20029;-72
2023/05/22 08:15:14;;;;;;;11.20;8.80;;;16.40;99.90;;;;;;5036106;28;20397;-71
2023/05/22 08:17:40;;;;;;;10.30;8.82;;;16.40;99.90;;;;;;5035738;28;20443;-72
2023/05/22 08:20:07;;;;;;;12.38;8.93;;;16.40;99.90;;;;;;5034842;28;20029;-72
2023/05/22 08:22:34;;;;;;;12.98;9.10;;;16.40;99.90;;;;;;5036250;28;20044;-72
2023/05/22 08:25:00;;;;;;;12.48;9.63;;;16.50;99.90;;;;;;5036382;28;20045;-72
2023/05/22 08:27:25;;;;;;;12.95;9.55;;;16.60;99.90;;;;;;5034780;28;20061;-72
2023/05/22 08:29:51;;;;;;;15.07;9.43;;;16.70;99.90;;;;;;5035706;28;20034;-72
2023/05/22 08:32:17;;;;;;;11.77;9.25;;;16.70;99.90;;;;;;5034847;28;20048;-72
2023/05/22 08:34:44;;;;;;;16.23;10.43;;;16.70;99.90;;;;;;5035964;28;20055;-72
2023/05/22 08:37:11;;;;;;;15.57;11.00;;;16.80;99.90;;;;;;5034219;28;20068;-72
2023/05/22 08:39:36;;;;;;;13.27;10.13;;;16.90;99.90;;;;;;5035714;28;20024;-72
2023/05/22 08:42:04;;;;;;;13.57;10.43;;;17.00;99.90;;;;;;5035712;28;20022;-72
2023/05/22 08:44:29;;;;;;;13.00;11.13;;;17.20;99.90;;;;;;5035582;28;20032;-71
2023/05/22 08:46:58;;;;;;;17.48;11.07;;;17.20;99.90;;;;;;5033989;28;20033;-71
2023/05/22 08:49:24;;;;;;;13.93;9.70;;;17.30;99.90;;;;;;5031017;28;20021;-71
2023/05/22 08:51:55;;;;;;;12.80;10.00;;;17.20;99.90;;;;;;5035861;28;20485;-72
2023/05/22 08:54:22;;;;;;;11.57;9.98;;;17.20;99.90;;;;;;5032756;28;20401;-72
2023/05/22 08:56:48;;;;;;;14.80;12.15;;;17.20;99.90;;;;;;5028532;28;20026;-72
2023/05/22 08:59:15;;;;;;;14.63;11.73;;;17.30;99.90;;;;;;5033707;28;20504;-72
2023/05/22 09:01:41;;;;;;;12.43;10.88;;;17.20;99.90;;;;;;5034766;28;20025;-72
2023/05/22 09:04:06;;;;;;;13.48;11.32;;;17.30;99.90;;;;;;5033595;28;20083;-72
2023/05/22 09:06:32;;;;;;;13.57;10.68;;;17.20;99.90;;;;;;5032127;28;20473;-72
2023/05/22 09:08:58;;;;;;;12.45;10.60;;;17.20;99.90;;;;;;5034187;28;20056;-72
2023/05/22 09:11:25;;;;;;;13.27;10.32;;;17.20;99.90;;;;;;5035692;28;20517;-71
2023/05/22 09:13:51;;;;;;;12.48;11.10;;;17.20;99.90;;;;;;5034518;28;20028;-71
2023/05/22 09:16:18;;;;;;;16.55;10.73;;;17.20;99.90;;;;;;5033319;28;20036;-72
2023/05/22 09:18:44;;;;;;;14.55;10.70;;;17.40;99.90;;;;;;5035223;28;20079;-72
2023/05/22 09:21:11;;;;;;;12.48;10.85;;;17.60;99.90;;;;;;5034531;28;20034;-72
2023/05/22 09:23:37;;;;;;;11.27;9.32;;;17.70;99.90;;;;;;5027522;28;20022;-71
2023/05/22 09:26:03;;;;;;;13.35;9.90;;;17.80;99.90;;;;;;5033399;28;20043;-71
2023/05/22 09:28:36;;;;;;;15.18;10.10;;;18.00;99.90;;;;;;5035457;28;20044;-70
2023/05/22 09:31:02;;;;;;;13.77;10.38;;;18.10;99.90;;;;;;5033842;28;20025;-71
2023/05/22 09:33:32;;;;;;;16.50;10.02;;;18.30;99.90;;;;;;5033023;28;20398;-70
2023/05/22 09:35:58;;;;;;;12.43;9.88;;;18.40;99.90;;;;;;5030591;28;20025;-70
2023/05/22 09:38:27;;;;;;;15.57;10.68;;;18.50;99.90;;;;;;5029040;28;20049;-71
2023/05/22 09:40:53;;;;;;;13.52;9.32;;;18.40;99.90;;;;;;5029682;28;20059;-69
2023/05/22 09:43:22;;;;;;;12.20;9.95;;;18.50;99.90;;;;;;5025058;28;20026;-71
2023/05/22 09:45:48;;;;;;;9.77;8.07;;;18.50;99.90;;;;;;5025504;28;20053;-69
2023/05/22 09:48:17;;;;;;;8.68;7.68;;;18.60;99.90;;;;;;5035003;28;20027;-71
2023/05/22 09:50:47;;;;;;;10.15;8.75;;;18.70;99.90;;;;;;5029613;28;20021;-72
2023/05/22 09:53:17;;;;;;;9.85;8.25;;;18.70;99.90;;;;;;5033913;28;20026;-70
2023/05/22 09:55:46;;;;;;;10.77;8.37;;;18.80;99.90;;;;;;5033858;28;20035;-71
2023/05/22 09:58:16;;;;;;;11.90;8.50;;;18.80;99.90;;;;;;5034243;28;20501;-71
2023/05/22 10:00:43;;;;;;;8.85;7.53;;;18.80;99.90;;;;;;5032474;28;20064;-70
2023/05/22 10:03:14;;;;;;;9.43;7.40;;;18.80;99.90;;;;;;5033157;28;20093;-71
2023/05/22 10:05:45;;;;;;;9.55;8.05;;;18.70;99.90;;;;;;5034193;28;20024;-71
2023/05/22 10:08:16;;;;;;;12.25;8.27;;;18.70;99.90;;;;;;5034574;28;20081;-71
2023/05/22 10:10:44;;;;;;;;;;;18.70;99.90;;;;;;5033708;28;20108;-71
2023/05/22 10:13:10;;;;;;;11.73;8.23;;;18.80;99.90;;;;;;5031748;28;19943;-71
2023/05/22 10:15:37;;;;;;;11.50;7.72;;;19.00;99.90;;;;;;5033343;28;20579;-70
2023/05/22 10:18:04;;;;;;;11.63;8.70;;;19.00;99.90;;;;;;5030794;28;20054;-72
2023/05/22 10:20:30;;;;;;;9.15;7.88;;;18.90;99.90;;;;;;5034386;28;20025;-70
2023/05/22 10:22:56;;;;;;;9.32;7.35;;;18.90;99.90;;;;;;5033333;28;20021;-71
2023/05/22 10:25:22;;;;;;;10.63;7.22;;;18.90;99.90;;;;;;5034896;28;20025;-71
2023/05/22 10:27:50;;;;;;;9.65;7.50;;;18.80;99.90;;;;;;5033573;28;20022;-71
2023/05/22 10:30:35;;;;;;;11.27;8.57;;;18.90;99.90;;;;;;5026238;28;20033;-71
2023/05/22 10:33:19;;;;;;;10.23;7.55;;;18.90;99.90;;;;;;5032848;28;20030;-71
2023/05/22 10:36:02;;;;;;;8.55;6.72;;;18.90;99.90;;;;;;5031091;28;20136;-71
2023/05/22 10:38:37;;;;;;;9.10;7.18;;;18.90;99.90;;;;;;5030181;28;20488;-71
2023/05/22 10:41:03;;;;;;;8.77;7.13;;;18.50;99.90;;;;;;5034332;28;20029;-72
2023/05/22 10:43:32;;;;;;;10.80;7.55;;;18.60;99.90;;;;;;5034674;28;20597;-71
2023/05/22 10:46:05;;;;;;;9.15;6.63;;;18.70;99.90;;;;;;5032332;28;20025;-71
2023/05/22 10:48:47;;;;;;;10.43;7.43;;;18.70;99.90;;;;;;5034328;28;20022;-71
2023/05/22 10:51:14;;;;;;;10.35;7.38;;;18.70;99.90;;;;;;5034823;28;20026;-71
2023/05/22 10:53:42;;;;;;;9.20;6.90;;;18.60;99.90;;;;;;5037982;28;20038;-70
2023/05/22 10:56:15;;;;;;;9.85;7.13;;;18.60;99.90;;;;;;5036404;28;20033;-71
2023/05/22 10:59:06;;;;;;;8.85;6.97;;;18.60;99.90;;;;;;5036339;28;20048;-71
2023/05/22 11:01:39;;;;;;;10.23;7.47;;;18.70;99.90;;;;;;5035307;28;20025;-70
2023/05/22 11:04:07;;;;;;;7.88;5.97;;;18.80;99.90;;;;;;5036583;28;20028;-71
2023/05/22 11:07:03;;;;;;;6.47;5.68;;;19.00;99.90;;;;;;5033267;28;20026;-71
2023/05/22 11:09:42;;;;;;;9.77;6.65;;;19.20;99.90;;;;;;5031995;28;20071;-72
2023/05/22 11:12:23;;;;;;;7.93;5.50;;;19.20;99.90;;;;;;5037415;28;20084;-71
2023/05/22 11:14:58;;;;;;;;;;;19.30;99.90;;;;;;5038093;28;20033;-71
2023/05/22 11:18:02;;;;;;;7.88;6.20;;;19.40;99.90;;;;;;5029956;28;19952;-71
2023/05/22 11:20:29;;;;;;;8.52;6.60;;;19.40;99.90;;;;;;5035844;28;20375;-72
2023/05/22 11:23:00;;;;;;;10.93;6.65;;;19.40;99.90;;;;;;5038468;28;20022;-72
2023/05/22 11:25:27;;;;;;;9.82;6.03;;;19.60;99.90;;;;;;5037535;28;20032;-72
2023/05/22 11:27:54;;;;;;;10.50;6.97;;;19.70;99.90;;;;;;5035740;28;20096;-71
2023/05/22 11:30:23;;;;;;;11.73;7.35;;;20.00;99.90;;;;;;5037057;28;20032;-71
2023/05/22 11:32:49;;;;;;;7.93;7.03;;;20.00;99.90;;;;;;5037889;28;20033;-71
2023/05/22 11:35:16;;;;;;;8.50;6.95;;;20.00;99.90;;;;;;5037520;28;20052;-72
2023/05/22 11:37:42;;;;;;;9.40;6.47;;;20.10;99.90;;;;;;5035905;28;20032;-71
2023/05/22 11:40:09;;;;;;;8.80;6.00;;;20.40;99.90;;;;;;5035540;28;20525;-72
2023/05/22 11:42:36;;;;;;;9.15;6.82;;;20.70;99.90;;;;;;5033942;28;20022;-70
2023/05/22 11:45:03;;;;;;;8.95;6.40;;;21.00;99.90;;;;;;5035349;28;20393;-72
2023/05/22 11:47:29;;;;;;;10.50;6.30;;;21.00;99.90;;;;;;5034628;28;20026;-71
2023/05/22 11:49:59;;;;;;;7.15;5.65;;;20.80;99.90;;;;;;5036448;28;20398;-72
2023/05/22 11:52:32;;;;;;;8.10;6.03;;;20.80;99.90;;;;;;5031066;28;20386;-72
2023/05/22 11:54:58;;;;;;;11.82;7.20;;;20.70;99.90;;;;;;5034203;28;20076;-72
2023/05/22 11:57:24;;;;;;;7.65;6.85;;;20.50;99.90;;;;;;5034696;28;20057;-72
2023/05/22 11:59:49;;;;;;;10.13;5.43;;;20.70;99.90;;;;;;5035690;28;20033;-72
2023/05/22 12:02:17;;;;;;;6.53;5.32;;;20.60;99.90;;;;;;5036972;28;20017;-72
2023/05/22 12:04:43;;;;;;;7.05;5.55;;;20.50;99.90;;;;;;5030515;28;20437;-71
2023/05/22 12:07:09;;;;;;;8.90;5.72;;;20.30;99.90;;;;;;5035757;28;20026;-72
2023/05/22 12:09:37;;;;;;;7.90;5.47;;;20.20;99.90;;;;;;5036766;28;20113;-73
2023/05/22 12:12:03;;;;;;;9.35;6.35;;;20.20;99.90;;;;;;5027126;28;20136;-73
2023/05/22 12:14:30;;;;;;;6.80;5.55;;;20.10;99.90;;;;;;5032801;28;20049;-72
2023/05/22 12:17:00;;;;;;;7.97;6.72;;;19.90;99.90;;;;;;5032430;28;20049;-73
2023/05/22 12:19:26;;;;;;;6.97;5.60;;;19.70;99.90;;;;;;5035923;28;20132;-72
2023/05/22 12:21:52;;;;;;;6.30;4.90;;;19.70;99.90;;;;;;5036455;28;20375;-73
2023/05/22 12:24:22;;;;;;;6.35;4.97;;;19.50;99.90;;;;;;5037152;28;20049;-73
2023/05/22 12:26:51;;;;;;;7.88;5.60;;;19.40;99.90;;;;;;5035413;28;20024;-73
2023/05/22 12:29:18;;;;;;;6.25;5.57;;;19.30;99.90;;;;;;5036833;28;20018;-73
2023/05/22 12:31:47;;;;;;;6.03;5.40;;;19.30;99.90;;;;;;5035036;28;20116;-73
2023/05/22 12:34:15;;;;;;;8.48;5.60;;;19.30;99.90;;;;;;5036741;28;20135;-72
2023/05/22 12:36:42;;;;;;;7.82;6.65;;;19.00;99.90;;;;;;5032472;28;20025;-73
2023/05/22 12:39:27;;;;;;;7.97;6.10;;;19.10;99.90;;;;;;5036745;28;20041;-73
2023/05/22 12:41:53;;;;;;;8.75;6.90;;;18.90;99.90;;;;;;5035145;28;20029;-72
2023/05/22 12:44:18;;;;;;;7.05;6.13;;;18.90;99.90;;;;;;5036455;28;20024;-73
2023/05/22 12:46:44;;;;;;;11.35;7.15;;;18.90;99.90;;;;;;5035625;28;20022;-72